sensor_id;sensor_type;location;lat;lon;timestamp;P1;durP1;ratioP1;P2;durP2;ratioP2
75362;SDS011;64122;51.988;5.892;2022-10-23T00:02:09;25.67;;;10.07;;
75362;SDS011;64122;51.988;5.892;2022-10-23T00:04:39;12.50;;;5.28;;
75362;SDS011;64122;51.988;5.892;2022-10-23T00:07:08;21.08;;;9.52;;
75362;SDS011;64122;51.988;5.892;2022-10-23T00:09:37;15.45;;;6.10;;
75362;SDS011;64122;51.988;5.892;2022-10-23T00:12:07;15.35;;;5.95;;
75362;SDS011;64122;51.988;5.892;2022-10-23T00:14:36;18.88;;;8.00;;
75362;SDS011;64122;51.988;5.892;2022-10-23T00:17:08;18.02;;;6.78;;
75362;SDS011;64122;51.988;5.892;2022-10-23T00:19:38;15.85;;;7.40;;
75362;SDS011;64122;51.988;5.892;2022-10-23T00:22:08;24.50;;;8.10;;
75362;SDS011;64122;51.988;5.892;2022-10-23T00:24:37;20.27;;;8.25;;
75362;SDS011;64122;51.988;5.892;2022-10-23T00:27:07;18.02;;;5.70;;
75362;SDS011;64122;51.988;5.892;2022-10-23T00:29:36;18.60;;;8.05;;
75362;SDS011;64122;51.988;5.892;2022-10-23T00:32:08;12.82;;;6.75;;
75362;SDS011;64122;51.988;5.892;2022-10-23T00:34:38;14.18;;;6.32;;
75362;SDS011;64122;51.988;5.892;2022-10-23T00:37:07;13.00;;;5.88;;
75362;SDS011;64122;51.988;5.892;2022-10-23T00:39:36;13.07;;;6.30;;
75362;SDS011;64122;51.988;5.892;2022-10-23T00:42:06;18.70;;;6.90;;
75362;SDS011;64122;51.988;5.892;2022-10-23T00:47:41;17.08;;;6.55;;
75362;SDS011;64122;51.988;5.892;2022-10-23T00:50:11;11.88;;;4.68;;
75362;SDS011;64122;51.988;5.892;2022-10-23T00:52:41;18.10;;;7.47;;
75362;SDS011;64122;51.988;5.892;2022-10-23T00:57:44;12.45;;;5.47;;
75362;SDS011;64122;51.988;5.892;2022-10-23T01:00:16;20.67;;;6.80;;
75362;SDS011;64122;51.988;5.892;2022-10-23T01:02:51;16.20;;;6.82;;
75362;SDS011;64122;51.988;5.892;2022-10-23T01:05:24;11.52;;;6.00;;
75362;SDS011;64122;51.988;5.892;2022-10-23T01:07:59;9.35;;;4.88;;
75362;SDS011;64122;51.988;5.892;2022-10-23T01:10:38;22.45;;;9.57;;
75362;SDS011;64122;51.988;5.892;2022-10-23T01:13:14;13.00;;;5.97;;
75362;SDS011;64122;51.988;5.892;2022-10-23T01:15:49;15.20;;;6.28;;
75362;SDS011;64122;51.988;5.892;2022-10-23T01:18:28;17.13;;;6.72;;
75362;SDS011;64122;51.988;5.892;2022-10-23T01:21:08;15.57;;;6.40;;
75362;SDS011;64122;51.988;5.892;2022-10-23T01:23:46;13.05;;;5.88;;
75362;SDS011;64122;51.988;5.892;2022-10-23T01:26:31;10.05;;;5.50;;
75362;SDS011;64122;51.988;5.892;2022-10-23T01:29:16;14.07;;;5.88;;
75362;SDS011;64122;51.988;5.892;2022-10-23T01:31:52;15.77;;;6.72;;
75362;SDS011;64122;51.988;5.892;2022-10-23T01:34:27;13.65;;;5.80;;
75362;SDS011;64122;51.988;5.892;2022-10-23T01:36:59;14.13;;;6.95;;
75362;SDS011;64122;51.988;5.892;2022-10-23T01:39:31;19.48;;;6.40;;
75362;SDS011;64122;51.988;5.892;2022-10-23T01:42:04;15.70;;;5.90;;
75362;SDS011;64122;51.988;5.892;2022-10-23T01:44:43;12.43;;;6.07;;
75362;SDS011;64122;51.988;5.892;2022-10-23T01:47:18;15.20;;;6.95;;
75362;SDS011;64122;51.988;5.892;2022-10-23T01:49:57;13.07;;;5.57;;
75362;SDS011;64122;51.988;5.892;2022-10-23T01:52:27;11.98;;;5.88;;
75362;SDS011;64122;51.988;5.892;2022-10-23T01:54:58;13.70;;;6.22;;
75362;SDS011;64122;51.988;5.892;2022-10-23T01:57:32;27.02;;;12.52;;
75362;SDS011;64122;51.988;5.892;2022-10-23T02:00:06;17.25;;;7.85;;
75362;SDS011;64122;51.988;5.892;2022-10-23T02:02:52;17.00;;;7.28;;
75362;SDS011;64122;51.988;5.892;2022-10-23T02:05:31;27.00;;;13.63;;
75362;SDS011;64122;51.988;5.892;2022-10-23T02:08:03;16.25;;;7.20;;
75362;SDS011;64122;51.988;5.892;2022-10-23T02:10:34;22.52;;;9.35;;
75362;SDS011;64122;51.988;5.892;2022-10-23T02:13:11;18.55;;;7.72;;
75362;SDS011;64122;51.988;5.892;2022-10-23T02:15:47;36.47;;;18.30;;
75362;SDS011;64122;51.988;5.892;2022-10-23T02:18:22;17.45;;;8.65;;
75362;SDS011;64122;51.988;5.892;2022-10-23T02:21:03;14.55;;;6.32;;
75362;SDS011;64122;51.988;5.892;2022-10-23T02:23:36;22.60;;;9.93;;
75362;SDS011;64122;51.988;5.892;2022-10-23T02:26:10;12.23;;;7.30;;
75362;SDS011;64122;51.988;5.892;2022-10-23T02:28:48;21.25;;;10.45;;
75362;SDS011;64122;51.988;5.892;2022-10-23T02:31:22;14.98;;;6.80;;
75362;SDS011;64122;51.988;5.892;2022-10-23T02:33:52;15.43;;;6.00;;
75362;SDS011;64122;51.988;5.892;2022-10-23T02:36:22;15.63;;;7.25;;
75362;SDS011;64122;51.988;5.892;2022-10-23T02:38:51;15.57;;;7.32;;
75362;SDS011;64122;51.988;5.892;2022-10-23T02:41:26;28.30;;;12.07;;
75362;SDS011;64122;51.988;5.892;2022-10-23T02:44:18;21.83;;;9.27;;
75362;SDS011;64122;51.988;5.892;2022-10-23T02:46:58;14.32;;;6.60;;
75362;SDS011;64122;51.988;5.892;2022-10-23T02:49:37;17.15;;;9.10;;
75362;SDS011;64122;51.988;5.892;2022-10-23T02:52:17;20.25;;;9.77;;
75362;SDS011;64122;51.988;5.892;2022-10-23T02:55:02;20.50;;;9.82;;
75362;SDS011;64122;51.988;5.892;2022-10-23T02:57:48;17.13;;;6.43;;
75362;SDS011;64122;51.988;5.892;2022-10-23T03:00:22;22.08;;;9.60;;
75362;SDS011;64122;51.988;5.892;2022-10-23T03:02:58;13.48;;;7.35;;
75362;SDS011;64122;51.988;5.892;2022-10-23T03:05:31;14.23;;;6.78;;
75362;SDS011;64122;51.988;5.892;2022-10-23T03:08:03;16.60;;;8.43;;
75362;SDS011;64122;51.988;5.892;2022-10-23T03:10:35;14.45;;;6.72;;
75362;SDS011;64122;51.988;5.892;2022-10-23T03:13:06;17.73;;;7.65;;
75362;SDS011;64122;51.988;5.892;2022-10-23T03:15:42;18.00;;;7.85;;
75362;SDS011;64122;51.988;5.892;2022-10-23T03:18:16;13.18;;;6.20;;
75362;SDS011;64122;51.988;5.892;2022-10-23T03:20:49;19.13;;;8.35;;
75362;SDS011;64122;51.988;5.892;2022-10-23T03:23:21;20.50;;;8.98;;
75362;SDS011;64122;51.988;5.892;2022-10-23T03:25:51;14.00;;;7.22;;
75362;SDS011;64122;51.988;5.892;2022-10-23T03:28:35;14.20;;;6.07;;
75362;SDS011;64122;51.988;5.892;2022-10-23T03:31:05;15.63;;;6.22;;
75362;SDS011;64122;51.988;5.892;2022-10-23T03:33:39;13.00;;;6.40;;
75362;SDS011;64122;51.988;5.892;2022-10-23T03:36:11;16.17;;;5.85;;
75362;SDS011;64122;51.988;5.892;2022-10-23T03:38:43;17.58;;;7.45;;
75362;SDS011;64122;51.988;5.892;2022-10-23T03:41:12;14.63;;;5.63;;
75362;SDS011;64122;51.988;5.892;2022-10-23T03:43:42;12.45;;;6.00;;
75362;SDS011;64122;51.988;5.892;2022-10-23T03:46:12;12.70;;;5.55;;
75362;SDS011;64122;51.988;5.892;2022-10-23T03:48:44;17.02;;;6.65;;
75362;SDS011;64122;51.988;5.892;2022-10-23T03:51:13;15.23;;;6.93;;
75362;SDS011;64122;51.988;5.892;2022-10-23T03:53:42;20.17;;;8.65;;
75362;SDS011;64122;51.988;5.892;2022-10-23T03:56:12;14.30;;;6.78;;
75362;SDS011;64122;51.988;5.892;2022-10-23T03:58:41;14.45;;;6.72;;
75362;SDS011;64122;51.988;5.892;2022-10-23T04:01:12;20.58;;;7.95;;
75362;SDS011;64122;51.988;5.892;2022-10-23T04:03:46;16.40;;;7.30;;
75362;SDS011;64122;51.988;5.892;2022-10-23T04:06:16;15.27;;;6.63;;
75362;SDS011;64122;51.988;5.892;2022-10-23T04:08:46;16.17;;;7.93;;
75362;SDS011;64122;51.988;5.892;2022-10-23T04:11:16;16.80;;;7.47;;
75362;SDS011;64122;51.988;5.892;2022-10-23T04:13:46;18.77;;;6.20;;
75362;SDS011;64122;51.988;5.892;2022-10-23T04:16:16;13.52;;;6.10;;
75362;SDS011;64122;51.988;5.892;2022-10-23T04:18:48;11.65;;;6.13;;
75362;SDS011;64122;51.988;5.892;2022-10-23T04:21:17;13.80;;;5.25;;
75362;SDS011;64122;51.988;5.892;2022-10-23T04:23:46;15.52;;;5.53;;
75362;SDS011;64122;51.988;5.892;2022-10-23T04:26:17;12.05;;;5.45;;
75362;SDS011;64122;51.988;5.892;2022-10-23T04:28:46;19.20;;;7.60;;
75362;SDS011;64122;51.988;5.892;2022-10-23T04:31:16;12.00;;;5.07;;
75362;SDS011;64122;51.988;5.892;2022-10-23T04:33:47;17.67;;;8.00;;
75362;SDS011;64122;51.988;5.892;2022-10-23T04:36:26;18.92;;;6.53;;
75362;SDS011;64122;51.988;5.892;2022-10-23T04:39:03;13.80;;;5.43;;
75362;SDS011;64122;51.988;5.892;2022-10-23T04:41:32;12.40;;;5.68;;
75362;SDS011;64122;51.988;5.892;2022-10-23T04:44:03;15.30;;;5.93;;
75362;SDS011;64122;51.988;5.892;2022-10-23T04:46:37;11.95;;;5.28;;
75362;SDS011;64122;51.988;5.892;2022-10-23T04:49:08;16.85;;;7.45;;
75362;SDS011;64122;51.988;5.892;2022-10-23T04:52:01;14.98;;;6.40;;
75362;SDS011;64122;51.988;5.892;2022-10-23T04:55:02;15.68;;;6.55;;
75362;SDS011;64122;51.988;5.892;2022-10-23T04:57:44;17.08;;;5.90;;
75362;SDS011;64122;51.988;5.892;2022-10-23T05:00:15;13.57;;;5.00;;
75362;SDS011;64122;51.988;5.892;2022-10-23T05:02:51;15.75;;;6.07;;
75362;SDS011;64122;51.988;5.892;2022-10-23T05:05:24;12.40;;;5.47;;
75362;SDS011;64122;51.988;5.892;2022-10-23T05:08:02;18.77;;;6.60;;
75362;SDS011;64122;51.988;5.892;2022-10-23T05:10:38;14.85;;;6.40;;
75362;SDS011;64122;51.988;5.892;2022-10-23T05:13:14;13.23;;;5.53;;
75362;SDS011;64122;51.988;5.892;2022-10-23T05:15:45;13.07;;;4.78;;
75362;SDS011;64122;51.988;5.892;2022-10-23T05:18:18;12.88;;;5.28;;
75362;SDS011;64122;51.988;5.892;2022-10-23T05:20:54;10.73;;;4.15;;
75362;SDS011;64122;51.988;5.892;2022-10-23T05:23:26;17.17;;;7.13;;
75362;SDS011;64122;51.988;5.892;2022-10-23T05:26:01;11.68;;;5.07;;
75362;SDS011;64122;51.988;5.892;2022-10-23T05:28:31;13.38;;;5.10;;
75362;SDS011;64122;51.988;5.892;2022-10-23T05:31:02;16.15;;;5.00;;
75362;SDS011;64122;51.988;5.892;2022-10-23T05:33:36;15.55;;;5.43;;
75362;SDS011;64122;51.988;5.892;2022-10-23T05:36:10;11.48;;;4.97;;
75362;SDS011;64122;51.988;5.892;2022-10-23T05:38:43;14.18;;;5.22;;
75362;SDS011;64122;51.988;5.892;2022-10-23T05:41:16;12.00;;;4.43;;
75362;SDS011;64122;51.988;5.892;2022-10-23T05:43:45;11.68;;;4.70;;
75362;SDS011;64122;51.988;5.892;2022-10-23T05:46:33;9.70;;;4.53;;
75362;SDS011;64122;51.988;5.892;2022-10-23T05:49:13;10.73;;;4.32;;
75362;SDS011;64122;51.988;5.892;2022-10-23T05:52:12;10.52;;;4.25;;
75362;SDS011;64122;51.988;5.892;2022-10-23T05:55:03;12.32;;;4.63;;
75362;SDS011;64122;51.988;5.892;2022-10-23T05:58:00;10.25;;;4.28;;
75362;SDS011;64122;51.988;5.892;2022-10-23T06:01:09;12.98;;;4.78;;
75362;SDS011;64122;51.988;5.892;2022-10-23T06:03:57;13.93;;;5.40;;
75362;SDS011;64122;51.988;5.892;2022-10-23T06:06:50;13.50;;;4.90;;
75362;SDS011;64122;51.988;5.892;2022-10-23T06:09:22;13.95;;;5.72;;
75362;SDS011;64122;51.988;5.892;2022-10-23T06:11:56;11.57;;;4.70;;
75362;SDS011;64122;51.988;5.892;2022-10-23T06:14:25;10.43;;;5.05;;
75362;SDS011;64122;51.988;5.892;2022-10-23T06:16:55;13.68;;;5.70;;
75362;SDS011;64122;51.988;5.892;2022-10-23T06:19:24;13.93;;;4.25;;
75362;SDS011;64122;51.988;5.892;2022-10-23T06:21:56;17.30;;;5.28;;
75362;SDS011;64122;51.988;5.892;2022-10-23T06:24:42;11.63;;;4.43;;
75362;SDS011;64122;51.988;5.892;2022-10-23T06:27:13;13.52;;;5.18;;
75362;SDS011;64122;51.988;5.892;2022-10-23T06:29:45;12.18;;;4.50;;
75362;SDS011;64122;51.988;5.892;2022-10-23T06:32:14;12.77;;;6.15;;
75362;SDS011;64122;51.988;5.892;2022-10-23T06:34:53;13.02;;;5.22;;
75362;SDS011;64122;51.988;5.892;2022-10-23T06:37:22;10.85;;;5.05;;
75362;SDS011;64122;51.988;5.892;2022-10-23T06:40:01;12.13;;;5.18;;
75362;SDS011;64122;51.988;5.892;2022-10-23T06:42:51;11.32;;;5.00;;
75362;SDS011;64122;51.988;5.892;2022-10-23T06:45:40;9.40;;;4.60;;
75362;SDS011;64122;51.988;5.892;2022-10-23T06:48:32;10.25;;;4.70;;
75362;SDS011;64122;51.988;5.892;2022-10-23T06:51:07;10.48;;;4.78;;
75362;SDS011;64122;51.988;5.892;2022-10-23T06:53:41;13.55;;;5.60;;
75362;SDS011;64122;51.988;5.892;2022-10-23T06:56:33;10.68;;;4.70;;
75362;SDS011;64122;51.988;5.892;2022-10-23T06:59:05;10.95;;;4.20;;
75362;SDS011;64122;51.988;5.892;2022-10-23T07:01:36;10.93;;;4.32;;
75362;SDS011;64122;51.988;5.892;2022-10-23T07:04:06;12.85;;;5.10;;
75362;SDS011;64122;51.988;5.892;2022-10-23T07:06:39;14.82;;;5.43;;
75362;SDS011;64122;51.988;5.892;2022-10-23T07:09:09;8.90;;;4.35;;
75362;SDS011;64122;51.988;5.892;2022-10-23T07:11:53;14.80;;;5.05;;
75362;SDS011;64122;51.988;5.892;2022-10-23T07:14:31;10.77;;;4.60;;
75362;SDS011;64122;51.988;5.892;2022-10-23T07:17:02;14.70;;;4.95;;
75362;SDS011;64122;51.988;5.892;2022-10-23T07:19:32;13.15;;;4.35;;
75362;SDS011;64122;51.988;5.892;2022-10-23T07:22:11;13.90;;;4.25;;
75362;SDS011;64122;51.988;5.892;2022-10-23T07:24:48;9.60;;;4.63;;
75362;SDS011;64122;51.988;5.892;2022-10-23T07:27:40;10.98;;;4.47;;
75362;SDS011;64122;51.988;5.892;2022-10-23T07:30:10;10.93;;;4.50;;
75362;SDS011;64122;51.988;5.892;2022-10-23T07:32:46;16.33;;;4.90;;
75362;SDS011;64122;51.988;5.892;2022-10-23T07:35:34;17.10;;;4.60;;
75362;SDS011;64122;51.988;5.892;2022-10-23T07:38:07;10.32;;;4.45;;
75362;SDS011;64122;51.988;5.892;2022-10-23T07:40:41;11.40;;;4.13;;
75362;SDS011;64122;51.988;5.892;2022-10-23T07:43:17;12.52;;;4.72;;
75362;SDS011;64122;51.988;5.892;2022-10-23T07:45:47;16.48;;;4.38;;
75362;SDS011;64122;51.988;5.892;2022-10-23T07:48:32;9.80;;;4.35;;
75362;SDS011;64122;51.988;5.892;2022-10-23T07:51:03;9.95;;;4.70;;
75362;SDS011;64122;51.988;5.892;2022-10-23T07:53:43;13.43;;;4.78;;
75362;SDS011;64122;51.988;5.892;2022-10-23T07:56:23;10.80;;;4.15;;
75362;SDS011;64122;51.988;5.892;2022-10-23T08:01:52;14.50;;;4.65;;
75362;SDS011;64122;51.988;5.892;2022-10-23T08:04:25;15.43;;;5.15;;
75362;SDS011;64122;51.988;5.892;2022-10-23T08:07:09;11.73;;;4.63;;
75362;SDS011;64122;51.988;5.892;2022-10-23T08:09:42;8.23;;;4.25;;
75362;SDS011;64122;51.988;5.892;2022-10-23T08:12:11;12.77;;;4.25;;
75362;SDS011;64122;51.988;5.892;2022-10-23T08:14:43;8.38;;;4.10;;
75362;SDS011;64122;51.988;5.892;2022-10-23T08:17:12;11.88;;;4.78;;
75362;SDS011;64122;51.988;5.892;2022-10-23T08:20:00;13.55;;;4.18;;
75362;SDS011;64122;51.988;5.892;2022-10-23T08:22:37;11.88;;;4.40;;
75362;SDS011;64122;51.988;5.892;2022-10-23T08:25:07;9.20;;;4.53;;
75362;SDS011;64122;51.988;5.892;2022-10-23T08:27:37;10.57;;;4.30;;
75362;SDS011;64122;51.988;5.892;2022-10-23T08:30:10;11.13;;;4.78;;
75362;SDS011;64122;51.988;5.892;2022-10-23T08:32:40;11.23;;;4.25;;
75362;SDS011;64122;51.988;5.892;2022-10-23T08:35:11;8.27;;;4.03;;
75362;SDS011;64122;51.988;5.892;2022-10-23T08:37:40;12.23;;;4.20;;
75362;SDS011;64122;51.988;5.892;2022-10-23T08:40:12;10.07;;;3.80;;
75362;SDS011;64122;51.988;5.892;2022-10-23T08:43:11;9.25;;;3.78;;
75362;SDS011;64122;51.988;5.892;2022-10-23T08:46:01;11.98;;;3.97;;
75362;SDS011;64122;51.988;5.892;2022-10-23T08:49:05;12.35;;;4.10;;
75362;SDS011;64122;51.988;5.892;2022-10-23T08:51:53;9.00;;;3.72;;
75362;SDS011;64122;51.988;5.892;2022-10-23T08:54:27;8.50;;;4.07;;
75362;SDS011;64122;51.988;5.892;2022-10-23T08:57:08;8.57;;;3.58;;
75362;SDS011;64122;51.988;5.892;2022-10-23T08:59:43;10.07;;;3.60;;
75362;SDS011;64122;51.988;5.892;2022-10-23T09:02:20;9.00;;;3.45;;
75362;SDS011;64122;51.988;5.892;2022-10-23T09:04:52;11.05;;;4.25;;
75362;SDS011;64122;51.988;5.892;2022-10-23T09:07:26;11.30;;;3.70;;
75362;SDS011;64122;51.988;5.892;2022-10-23T09:10:09;10.23;;;3.72;;
75362;SDS011;64122;51.988;5.892;2022-10-23T09:12:46;12.27;;;5.05;;
75362;SDS011;64122;51.988;5.892;2022-10-23T09:15:19;10.35;;;3.55;;
75362;SDS011;64122;51.988;5.892;2022-10-23T09:17:59;9.73;;;4.28;;
75362;SDS011;64122;51.988;5.892;2022-10-23T09:20:38;9.55;;;3.63;;
75362;SDS011;64122;51.988;5.892;2022-10-23T09:23:11;11.23;;;3.60;;
75362;SDS011;64122;51.988;5.892;2022-10-23T09:25:44;13.82;;;3.70;;
75362;SDS011;64122;51.988;5.892;2022-10-23T09:28:20;9.60;;;3.30;;
75362;SDS011;64122;51.988;5.892;2022-10-23T09:30:51;11.35;;;4.30;;
75362;SDS011;64122;51.988;5.892;2022-10-23T09:33:24;10.50;;;3.63;;
75362;SDS011;64122;51.988;5.892;2022-10-23T09:35:56;9.77;;;3.78;;
75362;SDS011;64122;51.988;5.892;2022-10-23T09:38:27;14.95;;;3.97;;
75362;SDS011;64122;51.988;5.892;2022-10-23T09:40:59;10.63;;;3.83;;
75362;SDS011;64122;51.988;5.892;2022-10-23T09:43:34;10.27;;;3.63;;
75362;SDS011;64122;51.988;5.892;2022-10-23T09:46:06;13.20;;;3.80;;
75362;SDS011;64122;51.988;5.892;2022-10-23T09:48:40;10.02;;;3.35;;
75362;SDS011;64122;51.988;5.892;2022-10-23T09:51:14;15.18;;;5.03;;
75362;SDS011;64122;51.988;5.892;2022-10-23T09:53:47;12.07;;;3.92;;
75362;SDS011;64122;51.988;5.892;2022-10-23T09:56:25;7.35;;;3.53;;
75362;SDS011;64122;51.988;5.892;2022-10-23T09:58:56;9.32;;;3.10;;
75362;SDS011;64122;51.988;5.892;2022-10-23T10:01:29;7.05;;;3.38;;
75362;SDS011;64122;51.988;5.892;2022-10-23T10:04:32;10.30;;;3.67;;
75362;SDS011;64122;51.988;5.892;2022-10-23T10:07:03;9.88;;;3.60;;
75362;SDS011;64122;51.988;5.892;2022-10-23T10:09:34;8.75;;;3.53;;
75362;SDS011;64122;51.988;5.892;2022-10-23T10:12:17;14.63;;;4.03;;
75362;SDS011;64122;51.988;5.892;2022-10-23T10:14:58;10.27;;;3.38;;
75362;SDS011;64122;51.988;5.892;2022-10-23T10:17:36;8.13;;;3.20;;
75362;SDS011;64122;51.988;5.892;2022-10-23T10:23:17;10.55;;;3.42;;
75362;SDS011;64122;51.988;5.892;2022-10-23T10:25:55;8.25;;;3.17;;
75362;SDS011;64122;51.988;5.892;2022-10-23T10:28:40;10.50;;;3.22;;
75362;SDS011;64122;51.988;5.892;2022-10-23T10:31:23;9.07;;;3.40;;
75362;SDS011;64122;51.988;5.892;2022-10-23T10:34:03;13.40;;;3.47;;
75362;SDS011;64122;51.988;5.892;2022-10-23T10:36:40;11.48;;;3.60;;
75362;SDS011;64122;51.988;5.892;2022-10-23T10:39:22;11.10;;;3.25;;
75362;SDS011;64122;51.988;5.892;2022-10-23T10:42:04;10.73;;;4.65;;
75362;SDS011;64122;51.988;5.892;2022-10-23T10:44:47;18.23;;;8.65;;
75362;SDS011;64122;51.988;5.892;2022-10-23T10:47:27;11.07;;;5.45;;
75362;SDS011;64122;51.988;5.892;2022-10-23T10:50:04;28.13;;;16.23;;
75362;SDS011;64122;51.988;5.892;2022-10-23T10:52:53;11.38;;;4.45;;
75362;SDS011;64122;51.988;5.892;2022-10-23T10:55:34;9.68;;;3.08;;
75362;SDS011;64122;51.988;5.892;2022-10-23T10:58:09;7.57;;;3.10;;
75362;SDS011;64122;51.988;5.892;2022-10-23T11:00:44;9.43;;;3.03;;
75362;SDS011;64122;51.988;5.892;2022-10-23T11:03:21;12.00;;;3.15;;
75362;SDS011;64122;51.988;5.892;2022-10-23T11:05:58;10.07;;;3.15;;
75362;SDS011;64122;51.988;5.892;2022-10-23T11:08:32;10.25;;;4.05;;
75362;SDS011;64122;51.988;5.892;2022-10-23T11:11:08;15.95;;;6.97;;
75362;SDS011;64122;51.988;5.892;2022-10-23T11:13:43;13.80;;;7.28;;
75362;SDS011;64122;51.988;5.892;2022-10-23T11:16:14;9.57;;;3.65;;
75362;SDS011;64122;51.988;5.892;2022-10-23T11:18:50;7.85;;;2.45;;
75362;SDS011;64122;51.988;5.892;2022-10-23T11:21:29;9.35;;;4.13;;
75362;SDS011;64122;51.988;5.892;2022-10-23T11:24:08;9.93;;;2.92;;
75362;SDS011;64122;51.988;5.892;2022-10-23T11:27:14;12.45;;;3.85;;
75362;SDS011;64122;51.988;5.892;2022-10-23T11:30:11;10.57;;;3.60;;
75362;SDS011;64122;51.988;5.892;2022-10-23T11:35:52;9.25;;;3.70;;
75362;SDS011;64122;51.988;5.892;2022-10-23T11:38:32;9.85;;;3.25;;
75362;SDS011;64122;51.988;5.892;2022-10-23T11:41:04;10.25;;;3.60;;
75362;SDS011;64122;51.988;5.892;2022-10-23T11:43:51;10.35;;;4.65;;
75362;SDS011;64122;51.988;5.892;2022-10-23T11:46:28;9.55;;;3.20;;
75362;SDS011;64122;51.988;5.892;2022-10-23T11:49:00;12.32;;;3.47;;
75362;SDS011;64122;51.988;5.892;2022-10-23T11:51:31;8.65;;;4.03;;
75362;SDS011;64122;51.988;5.892;2022-10-23T11:56:53;8.75;;;3.85;;
75362;SDS011;64122;51.988;5.892;2022-10-23T11:59:35;9.27;;;3.55;;
75362;SDS011;64122;51.988;5.892;2022-10-23T12:02:18;8.57;;;3.88;;
75362;SDS011;64122;51.988;5.892;2022-10-23T12:04:57;9.88;;;4.53;;
75362;SDS011;64122;51.988;5.892;2022-10-23T12:07:30;8.48;;;3.85;;
75362;SDS011;64122;51.988;5.892;2022-10-23T12:10:04;8.68;;;3.10;;
75362;SDS011;64122;51.988;5.892;2022-10-23T12:12:53;9.82;;;3.67;;
75362;SDS011;64122;51.988;5.892;2022-10-23T12:15:26;9.85;;;3.90;;
75362;SDS011;64122;51.988;5.892;2022-10-23T12:20:37;10.38;;;3.40;;
75362;SDS011;64122;51.988;5.892;2022-10-23T12:23:19;8.07;;;2.75;;
75362;SDS011;64122;51.988;5.892;2022-10-23T12:26:12;8.95;;;3.53;;
75362;SDS011;64122;51.988;5.892;2022-10-23T12:29:19;11.32;;;3.38;;
75362;SDS011;64122;51.988;5.892;2022-10-23T12:31:59;10.07;;;4.60;;
75362;SDS011;64122;51.988;5.892;2022-10-23T12:34:39;9.55;;;3.15;;
75362;SDS011;64122;51.988;5.892;2022-10-23T12:37:23;10.70;;;3.33;;
75362;SDS011;64122;51.988;5.892;2022-10-23T12:40:14;6.65;;;2.95;;
75362;SDS011;64122;51.988;5.892;2022-10-23T12:42:48;13.68;;;3.30;;
75362;SDS011;64122;51.988;5.892;2022-10-23T12:45:21;8.13;;;3.00;;
75362;SDS011;64122;51.988;5.892;2022-10-23T12:47:54;12.48;;;4.43;;
75362;SDS011;64122;51.988;5.892;2022-10-23T12:50:25;9.10;;;2.90;;
75362;SDS011;64122;51.988;5.892;2022-10-23T12:52:57;10.95;;;2.85;;
75362;SDS011;64122;51.988;5.892;2022-10-23T12:55:29;9.80;;;3.17;;
75362;SDS011;64122;51.988;5.892;2022-10-23T12:58:17;11.75;;;3.40;;
75362;SDS011;64122;51.988;5.892;2022-10-23T13:00:49;10.70;;;3.58;;
75362;SDS011;64122;51.988;5.892;2022-10-23T13:03:22;7.57;;;3.20;;
75362;SDS011;64122;51.988;5.892;2022-10-23T13:05:53;8.25;;;3.00;;
75362;SDS011;64122;51.988;5.892;2022-10-23T13:08:28;11.18;;;3.47;;
75362;SDS011;64122;51.988;5.892;2022-10-23T13:11:19;9.52;;;3.13;;
75362;SDS011;64122;51.988;5.892;2022-10-23T13:13:51;9.90;;;3.33;;
75362;SDS011;64122;51.988;5.892;2022-10-23T13:16:21;7.97;;;3.33;;
75362;SDS011;64122;51.988;5.892;2022-10-23T13:18:54;9.38;;;3.00;;
75362;SDS011;64122;51.988;5.892;2022-10-23T13:21:24;12.13;;;3.00;;
75362;SDS011;64122;51.988;5.892;2022-10-23T13:23:57;8.23;;;3.05;;
75362;SDS011;64122;51.988;5.892;2022-10-23T13:26:30;10.30;;;2.97;;
75362;SDS011;64122;51.988;5.892;2022-10-23T13:29:01;11.68;;;3.10;;
75362;SDS011;64122;51.988;5.892;2022-10-23T13:31:31;7.75;;;3.00;;
75362;SDS011;64122;51.988;5.892;2022-10-23T13:34:13;7.72;;;2.85;;
75362;SDS011;64122;51.988;5.892;2022-10-23T13:36:50;8.60;;;3.00;;
75362;SDS011;64122;51.988;5.892;2022-10-23T13:39:24;8.48;;;3.35;;
75362;SDS011;64122;51.988;5.892;2022-10-23T13:41:55;6.50;;;2.63;;
75362;SDS011;64122;51.988;5.892;2022-10-23T13:44:27;11.38;;;3.65;;
75362;SDS011;64122;51.988;5.892;2022-10-23T13:46:57;11.07;;;3.00;;
75362;SDS011;64122;51.988;5.892;2022-10-23T13:49:29;7.93;;;2.85;;
75362;SDS011;64122;51.988;5.892;2022-10-23T13:54:28;6.63;;;2.80;;
75362;SDS011;64122;51.988;5.892;2022-10-23T13:56:57;8.85;;;2.85;;
75362;SDS011;64122;51.988;5.892;2022-10-23T13:59:29;8.73;;;3.10;;
75362;SDS011;64122;51.988;5.892;2022-10-23T14:01:59;6.65;;;2.33;;
75362;SDS011;64122;51.988;5.892;2022-10-23T14:04:32;10.20;;;3.38;;
75362;SDS011;64122;51.988;5.892;2022-10-23T14:07:03;9.98;;;2.45;;
75362;SDS011;64122;51.988;5.892;2022-10-23T14:09:32;6.20;;;2.70;;
75362;SDS011;64122;51.988;5.892;2022-10-23T14:12:01;7.40;;;2.92;;
75362;SDS011;64122;51.988;5.892;2022-10-23T14:14:31;6.35;;;2.47;;
75362;SDS011;64122;51.988;5.892;2022-10-23T14:17:00;7.57;;;2.42;;
75362;SDS011;64122;51.988;5.892;2022-10-23T14:19:33;6.28;;;2.05;;
75362;SDS011;64122;51.988;5.892;2022-10-23T14:22:03;7.30;;;2.05;;
75362;SDS011;64122;51.988;5.892;2022-10-23T14:24:32;7.28;;;2.55;;
75362;SDS011;64122;51.988;5.892;2022-10-23T14:27:03;6.65;;;2.42;;
75362;SDS011;64122;51.988;5.892;2022-10-23T14:29:32;7.78;;;2.30;;
75362;SDS011;64122;51.988;5.892;2022-10-23T14:32:02;9.05;;;2.40;;
75362;SDS011;64122;51.988;5.892;2022-10-23T14:34:37;11.20;;;2.92;;
75362;SDS011;64122;51.988;5.892;2022-10-23T14:37:10;7.45;;;2.83;;
75362;SDS011;64122;51.988;5.892;2022-10-23T14:39:39;7.82;;;2.22;;
75362;SDS011;64122;51.988;5.892;2022-10-23T14:42:09;7.05;;;2.75;;
75362;SDS011;64122;51.988;5.892;2022-10-23T14:44:38;7.07;;;2.53;;
75362;SDS011;64122;51.988;5.892;2022-10-23T14:47:08;7.65;;;2.40;;
75362;SDS011;64122;51.988;5.892;2022-10-23T14:49:39;6.10;;;2.30;;
75362;SDS011;64122;51.988;5.892;2022-10-23T14:52:09;6.80;;;2.38;;
75362;SDS011;64122;51.988;5.892;2022-10-23T14:54:38;4.68;;;2.20;;
75362;SDS011;64122;51.988;5.892;2022-10-23T14:57:08;7.00;;;2.60;;
75362;SDS011;64122;51.988;5.892;2022-10-23T14:59:41;7.32;;;2.70;;
75362;SDS011;64122;51.988;5.892;2022-10-23T15:02:10;7.32;;;2.47;;
75362;SDS011;64122;51.988;5.892;2022-10-23T15:04:42;7.75;;;2.20;;
75362;SDS011;64122;51.988;5.892;2022-10-23T15:07:12;6.53;;;2.58;;
75362;SDS011;64122;51.988;5.892;2022-10-23T15:09:50;8.05;;;1.95;;
75362;SDS011;64122;51.988;5.892;2022-10-23T15:12:21;5.55;;;2.50;;
75362;SDS011;64122;51.988;5.892;2022-10-23T15:14:50;5.55;;;2.15;;
75362;SDS011;64122;51.988;5.892;2022-10-23T15:17:20;9.23;;;2.40;;
75362;SDS011;64122;51.988;5.892;2022-10-23T15:19:51;7.07;;;2.30;;
75362;SDS011;64122;51.988;5.892;2022-10-23T15:22:21;6.68;;;2.35;;
75362;SDS011;64122;51.988;5.892;2022-10-23T15:24:50;4.95;;;2.28;;
75362;SDS011;64122;51.988;5.892;2022-10-23T15:27:21;5.60;;;2.33;;
75362;SDS011;64122;51.988;5.892;2022-10-23T15:29:51;7.32;;;2.65;;
75362;SDS011;64122;51.988;5.892;2022-10-23T15:32:20;8.27;;;2.38;;
75362;SDS011;64122;51.988;5.892;2022-10-23T15:34:52;7.70;;;2.40;;
75362;SDS011;64122;51.988;5.892;2022-10-23T15:37:23;6.55;;;2.25;;
75362;SDS011;64122;51.988;5.892;2022-10-23T15:39:52;9.20;;;2.70;;
75362;SDS011;64122;51.988;5.892;2022-10-23T15:42:21;6.35;;;2.50;;
75362;SDS011;64122;51.988;5.892;2022-10-23T15:44:50;5.50;;;2.42;;
75362;SDS011;64122;51.988;5.892;2022-10-23T15:47:20;9.20;;;2.85;;
75362;SDS011;64122;51.988;5.892;2022-10-23T15:49:52;8.27;;;2.80;;